createdAt,value
2023-01-12T02:16:24.449Z,86.51
2023-01-12T02:19:39.521Z,85.96
2023-01-12T02:22:38.676Z,85.24
2023-01-12T02:25:31.619Z,84.49
2023-01-12T02:28:01.563Z,84.22
2023-01-12T02:30:47.374Z,84.48
2023-01-12T02:33:29.621Z,84.40
2023-01-12T02:36:29.008Z,84.36
2023-01-12T02:39:21.448Z,83.81
2023-01-12T02:42:20.122Z,83.65
2023-01-12T02:44:56.278Z,84.03
2023-01-12T02:47:52.030Z,83.89
2023-01-12T02:50:41.138Z,84.03
2023-01-12T02:53:12.552Z,83.91
2023-01-12T02:55:39.534Z,84.18
2023-01-12T02:58:06.795Z,84.07
2023-01-12T03:00:35.743Z,83.97
2023-01-12T03:03:02.735Z,83.84
2023-01-12T03:05:29.670Z,83.76
2023-01-12T03:07:59.405Z,83.83
2023-01-12T03:10:43.374Z,83.74
2023-01-12T03:13:13.676Z,83.71
2023-01-12T03:15:43.997Z,83.75
2023-01-12T03:18:45.589Z,84.00
2023-01-12T03:21:29.193Z,84.11
2023-01-12T03:24:11.386Z,84.14
2023-01-12T03:26:42.107Z,84.03
2023-01-12T03:29:14.067Z,84.04
2023-01-12T03:31:41.030Z,83.99
2023-01-12T03:34:08.614Z,83.94
2023-01-12T03:36:54.393Z,83.93
2023-01-12T03:39:40.103Z,83.79
2023-01-12T03:42:11.735Z,83.80
2023-01-12T03:44:50.516Z,83.80
2023-01-12T03:47:23.845Z,83.75
2023-01-12T03:50:10.409Z,83.93
2023-01-12T03:52:37.797Z,83.90
2023-01-12T03:55:05.846Z,84.06
2023-01-12T03:57:32.753Z,83.91
2023-01-12T03:59:59.952Z,83.84
2023-01-12T04:02:26.869Z,83.67
2023-01-12T04:04:53.856Z,83.61
2023-01-12T04:07:20.813Z,83.64
2023-01-12T04:09:47.751Z,83.57
2023-01-12T04:12:15.176Z,83.95
2023-01-12T04:14:45.063Z,84.13
2023-01-12T04:17:13.891Z,84.37
2023-01-12T04:19:40.961Z,84.27
2023-01-12T04:22:26.658Z,84.36
2023-01-12T04:24:53.535Z,84.37
2023-01-12T04:27:20.561Z,84.42
2023-01-12T04:29:47.608Z,84.68
2023-01-12T04:32:14.562Z,84.68
2023-01-12T04:34:41.493Z,84.92
2023-01-12T04:37:08.462Z,84.76
2023-01-12T04:39:35.394Z,84.68
2023-01-12T04:42:02.269Z,84.60
2023-01-12T04:44:29.198Z,84.57
2023-01-12T04:46:56.464Z,84.53
2023-01-12T04:49:23.522Z,84.81
2023-01-12T04:51:50.401Z,84.88
2023-01-12T04:54:17.417Z,84.80
2023-01-12T04:56:44.366Z,84.88
2023-01-12T04:59:11.424Z,84.86
2023-01-12T05:01:39.347Z,84.80
2023-01-12T05:04:07.915Z,84.85
2023-01-12T05:06:35.321Z,84.98
2023-01-12T05:09:21.043Z,85.03
2023-01-12T05:11:47.999Z,84.77
2023-01-12T05:14:14.926Z,84.72
2023-01-12T05:16:41.834Z,84.75
2023-01-12T05:19:09.349Z,84.64
2023-01-12T05:21:36.445Z,84.53
2023-01-12T05:24:03.547Z,84.45
2023-01-12T05:26:30.421Z,84.50
2023-01-12T05:28:57.438Z,84.57
2023-01-12T05:31:24.438Z,84.59
2023-01-12T05:33:51.449Z,84.29
2023-01-12T05:36:18.450Z,84.34
2023-01-12T05:38:45.365Z,84.30
2023-01-12T05:41:14.624Z,84.54
2023-01-12T05:43:51.236Z,84.66
2023-01-12T05:46:21.331Z,84.78
2023-01-12T05:48:48.498Z,84.79
2023-01-12T05:51:15.751Z,84.87
2023-01-12T05:53:42.908Z,84.81
2023-01-12T05:56:21.139Z,84.96
2023-01-12T05:58:55.456Z,84.81
2023-01-12T06:01:22.511Z,84.71
2023-01-12T06:03:50.809Z,84.51
2023-01-12T06:06:19.056Z,84.35
2023-01-12T06:08:46.615Z,84.51
2023-01-12T06:11:32.291Z,84.53
2023-01-12T06:13:59.951Z,84.36
2023-01-12T06:16:27.555Z,84.44
2023-01-12T06:18:54.581Z,84.69
2023-01-12T06:21:21.515Z,84.64
2023-01-12T06:23:48.383Z,84.55
2023-01-12T06:26:15.329Z,84.22
2023-01-12T06:28:43.059Z,84.14
2023-01-12T06:31:11.718Z,84.46
2023-01-12T06:33:38.880Z,84.89
2023-01-12T06:36:06.483Z,85.01
2023-01-12T06:38:34.135Z,85.24
2023-01-12T06:41:04.688Z,85.39
2023-01-12T06:43:33.165Z,85.33
2023-01-12T06:46:00.243Z,85.34
2023-01-12T06:49:57.106Z,85.51
2023-01-12T06:52:25.205Z,85.77
2023-01-12T06:54:52.272Z,85.56
2023-01-12T06:57:20.026Z,85.52
2023-01-12T06:59:47.203Z,85.66
2023-01-12T07:02:15.540Z,85.57
2023-01-12T07:04:43.233Z,85.67
2023-01-12T07:07:10.301Z,85.66
2023-01-12T07:09:37.218Z,85.50
2023-01-12T07:12:04.820Z,85.53
2023-01-12T07:14:36.471Z,85.47
2023-01-12T07:17:03.528Z,85.50
2023-01-12T07:19:30.393Z,85.53
2023-01-12T07:21:57.308Z,85.56
2023-01-12T07:24:24.176Z,85.17
2023-01-12T07:26:51.434Z,85.30
2023-01-12T07:29:18.382Z,85.65
2023-01-12T07:31:45.643Z,84.75
2023-01-12T07:34:12.706Z,84.41
2023-01-12T07:36:41.733Z,84.60
2023-01-12T07:39:09.571Z,84.70
2023-01-12T07:41:55.447Z,84.43
2023-01-12T07:44:23.120Z,84.55
2023-01-12T07:46:49.994Z,84.66
2023-01-12T07:49:17.013Z,84.74
2023-01-12T07:51:43.968Z,84.81
2023-01-12T07:54:10.875Z,84.81
2023-01-12T07:56:37.864Z,84.54
2023-01-12T07:59:04.799Z,84.39
2023-01-12T08:01:33.023Z,84.44
2023-01-12T08:04:00.003Z,84.48
2023-01-12T08:06:26.993Z,84.67
2023-01-12T08:08:54.764Z,84.68
2023-01-12T08:11:23.016Z,84.64
2023-01-12T08:13:54.129Z,84.54
2023-01-12T08:16:23.771Z,84.72
2023-01-12T08:19:01.421Z,84.56
2023-01-12T08:21:31.005Z,84.44
2023-01-12T08:23:59.287Z,84.32
2023-01-12T08:26:32.149Z,83.97
2023-01-12T08:29:02.707Z,83.62
2023-01-12T08:31:30.013Z,83.39
2023-01-12T08:33:57.047Z,83.41
2023-01-12T08:36:24.387Z,83.64
2023-01-12T08:38:51.424Z,83.63
2023-01-12T08:41:33.621Z,83.64
2023-01-12T08:44:06.202Z,83.81
2023-01-12T08:46:46.728Z,83.84
2023-01-12T08:49:16.773Z,83.81
2023-01-12T08:51:44.185Z,84.02
2023-01-12T08:54:12.069Z,84.11
2023-01-12T08:56:39.243Z,84.03
2023-01-12T08:59:07.873Z,83.69
2023-01-12T09:01:47.991Z,83.27
2023-01-12T09:04:15.267Z,83.25
2023-01-12T09:06:44.285Z,83.18
2023-01-12T09:09:13.178Z,83.13
2023-01-12T09:11:41.488Z,82.83
2023-01-12T09:14:08.780Z,82.94
2023-01-12T09:16:35.820Z,82.84
2023-01-12T09:19:03.013Z,82.79
2023-01-12T09:21:30.576Z,82.62
2023-01-12T09:23:57.528Z,82.79
2023-01-12T09:26:27.043Z,82.46
2023-01-12T09:28:54.057Z,82.54
2023-01-12T09:31:23.080Z,82.53
2023-01-12T09:33:50.133Z,82.38
2023-01-12T09:36:25.293Z,82.23
2023-01-12T14:31:48.993Z,85.31
2023-01-12T14:34:27.604Z,84.47
2023-01-12T14:36:54.616Z,84.65
2023-01-12T14:39:23.245Z,83.80
2023-01-12T14:42:10.552Z,83.69
2023-01-12T14:44:57.836Z,83.55
2023-01-12T14:47:29.592Z,83.52
2023-01-12T14:49:56.799Z,83.66
2023-01-12T14:52:31.225Z,83.60
2023-01-12T14:55:17.082Z,83.37
2023-01-12T14:57:47.943Z,82.97
2023-01-12T15:00:20.568Z,82.94
2023-01-12T15:02:50.542Z,82.90
2023-01-12T15:05:18.966Z,83.05
2023-01-12T15:07:59.223Z,82.95
2023-01-12T15:10:34.828Z,82.96
2023-01-12T15:13:25.600Z,83.12
2023-01-12T15:16:11.824Z,82.67
2023-01-12T15:18:57.673Z,82.80
2023-01-12T15:21:43.399Z,82.71
2023-01-12T15:24:50.674Z,82.70
2023-01-12T15:27:19.112Z,82.67
2023-01-12T15:29:46.082Z,82.58
2023-01-12T15:32:21.734Z,82.82
2023-01-12T15:34:49.120Z,83.15
2023-01-12T15:37:19.435Z,83.44
2023-01-12T15:39:46.883Z,83.35
2023-01-12T15:42:18.578Z,83.36
2023-01-12T15:44:46.286Z,83.18
2023-01-12T15:47:17.584Z,83.09
2023-01-12T15:49:48.693Z,83.02
2023-01-12T15:52:21.049Z,83.04
2023-01-12T15:54:48.294Z,82.99
2023-01-12T15:57:15.378Z,82.75
2023-01-12T15:59:42.552Z,82.64
2023-01-12T16:02:28.293Z,82.88
2023-01-12T16:04:55.202Z,82.88
2023-01-12T16:07:22.121Z,82.97
2023-01-12T16:09:50.675Z,83.14
2023-01-12T16:12:18.143Z,82.96
2023-01-12T16:14:45.212Z,83.04
2023-01-12T16:17:12.166Z,83.20
2023-01-12T16:19:42.568Z,83.07
2023-01-12T16:22:26.704Z,83.40
2023-01-12T16:24:55.172Z,83.62
2023-01-12T16:27:23.738Z,83.82
2023-01-12T16:29:50.746Z,83.86
2023-01-12T16:32:18.083Z,83.81
2023-01-12T16:34:46.012Z,84.03
2023-01-12T16:37:14.055Z,84.07
2023-01-12T16:39:41.815Z,84.29
2023-01-12T16:42:09.676Z,84.15
2023-01-12T16:44:38.375Z,84.21
2023-01-12T16:47:06.312Z,84.21
2023-01-12T16:49:36.654Z,84.28
2023-01-12T16:52:04.352Z,84.49
2023-01-12T16:54:31.536Z,84.50
2023-01-12T16:56:59.686Z,84.42
2023-01-12T16:59:28.509Z,84.59
2023-01-12T17:01:55.747Z,84.74
2023-01-12T17:04:23.484Z,84.66
2023-01-12T17:06:50.648Z,84.59
2023-01-12T17:09:18.016Z,84.54
2023-01-12T17:11:45.217Z,84.43
2023-01-12T17:14:24.571Z,84.32
2023-01-12T17:16:53.197Z,84.35
2023-01-12T17:19:20.445Z,84.28
2023-01-12T17:21:49.883Z,84.28
2023-01-12T17:24:19.952Z,84.48
2023-01-12T17:26:52.241Z,84.49
2023-01-12T17:29:20.728Z,84.46
2023-01-12T17:31:49.700Z,84.49
2023-01-12T17:34:16.981Z,84.47
2023-01-12T17:36:44.248Z,84.61
2023-01-12T17:39:11.220Z,84.65
2023-01-12T17:41:56.968Z,84.55
2023-01-12T17:44:24.029Z,84.80
2023-01-12T17:46:51.075Z,85.08
2023-01-12T17:49:18.896Z,85.02
2023-01-12T17:51:48.996Z,84.84
2023-01-12T17:54:17.049Z,84.69
2023-01-12T17:56:44.060Z,84.82
2023-01-12T17:59:17.324Z,84.84
2023-01-12T18:01:44.835Z,84.87
2023-01-12T18:04:12.415Z,85.06
2023-01-12T18:06:39.354Z,85.25
2023-01-12T18:09:06.635Z,85.14
2023-01-12T18:11:33.899Z,85.25
2023-01-12T18:14:01.466Z,85.35
2023-01-12T18:16:28.608Z,85.46
2023-01-12T18:18:55.957Z,85.38
2023-01-12T18:21:25.368Z,85.43
2023-01-12T18:23:52.826Z,85.18
2023-01-12T18:26:25.476Z,85.02
2023-01-12T18:28:53.471Z,85.09
2023-01-12T18:31:25.975Z,84.93
2023-01-12T18:33:59.101Z,84.83
2023-01-12T18:36:26.101Z,84.59
2023-01-12T18:38:54.115Z,84.76
2023-01-12T18:41:40.367Z,84.78
2023-01-12T18:44:07.593Z,84.62
2023-01-12T18:47:04.315Z,84.54
2023-01-12T19:14:21.514Z,85.84
2023-01-12T19:17:07.184Z,85.72
2023-01-12T19:19:35.180Z,85.44
2023-01-12T19:22:21.283Z,85.26
2023-01-12T19:25:06.931Z,85.16
2023-01-12T19:27:52.605Z,85.16
2023-01-12T19:30:19.761Z,84.72
2023-01-12T19:32:46.712Z,84.97
2023-01-12T19:35:13.743Z,85.16
2023-01-12T19:37:42.669Z,85.30
2023-01-12T19:40:21.128Z,85.35
2023-01-12T19:43:06.808Z,85.19
2023-01-12T19:45:37.288Z,85.11
2023-01-12T19:48:04.867Z,85.07
2023-01-12T19:50:31.998Z,85.18
2023-01-12T19:52:59.049Z,84.98
2023-01-12T19:55:25.998Z,84.89
2023-01-12T19:57:54.549Z,84.74
2023-01-12T20:00:21.695Z,84.54
2023-01-12T20:02:49.365Z,84.59
2023-01-12T20:05:25.571Z,84.28
2023-01-12T20:07:52.831Z,84.51
2023-01-12T20:10:21.336Z,84.51
2023-01-12T20:12:48.921Z,84.48
2023-01-12T20:15:16.130Z,84.43
2023-01-12T20:17:43.086Z,84.31
2023-01-12T20:20:11.344Z,84.28
2023-01-12T20:22:38.522Z,84.50
2023-01-12T20:25:06.381Z,84.68
2023-01-12T20:27:37.457Z,84.89
2023-01-12T20:30:05.759Z,84.70
2023-01-12T20:32:34.947Z,84.87
2023-01-12T20:35:05.882Z,84.91
2023-01-12T20:37:33.749Z,84.88
2023-01-12T20:40:00.785Z,84.87
2023-01-12T20:42:29.474Z,85.13
2023-01-12T20:44:57.650Z,85.00
2023-01-12T20:47:28.801Z,85.05
2023-01-12T20:49:56.153Z,85.16
2023-01-12T20:52:24.947Z,85.35
2023-01-12T20:54:52.009Z,85.55
2023-01-12T20:57:19.173Z,85.54
2023-01-12T20:59:49.225Z,85.54
2023-01-12T21:02:35.983Z,85.22
2023-01-12T21:05:03.134Z,85.21
2023-01-12T21:07:30.202Z,85.14
2023-01-12T21:09:57.237Z,85.03
2023-01-12T21:12:27.190Z,85.09
2023-01-12T21:14:54.701Z,84.81
2023-01-12T21:17:21.876Z,85.02
2023-01-12T21:19:48.825Z,85.19
2023-01-12T21:22:15.939Z,85.12
2023-01-12T21:24:43.032Z,85.09
2023-01-12T21:27:09.948Z,85.43
2023-01-12T21:29:36.936Z,85.88
2023-01-12T21:32:04.099Z,86.33
2023-01-12T21:34:31.244Z,86.64
2023-01-12T21:36:58.285Z,86.69
2023-01-12T21:39:25.247Z,86.68
2023-01-12T21:42:11.027Z,86.53
2023-01-12T21:44:37.975Z,86.49
2023-01-12T21:47:05.135Z,86.54
2023-01-12T21:49:32.083Z,86.72
2023-01-12T21:51:59.132Z,86.61
2023-01-12T21:54:26.190Z,86.36
2023-01-12T21:56:53.342Z,86.38
2023-01-12T21:59:20.305Z,86.47
2023-01-12T22:01:47.465Z,86.41
2023-01-12T22:04:14.746Z,86.56
2023-01-12T22:06:41.965Z,86.87
2023-01-12T22:09:09.368Z,87.19
2023-01-12T22:11:36.378Z,87.19
2023-01-12T22:14:03.437Z,87.18
2023-01-12T22:16:30.431Z,87.01
2023-01-12T22:18:57.430Z,87.14
2023-01-12T22:21:24.386Z,86.63
2023-01-12T22:23:51.373Z,86.83
2023-01-12T22:26:18.754Z,86.85
2023-01-12T22:28:47.832Z,87.17
2023-01-12T22:31:20.013Z,87.16
2023-01-12T22:33:48.038Z,87.05
2023-01-12T22:36:15.030Z,86.96
2023-01-12T22:38:42.457Z,87.08
2023-01-12T22:41:11.143Z,87.28
2023-01-12T22:43:40.807Z,87.29
2023-01-12T22:46:15.703Z,86.93
2023-01-12T22:48:42.866Z,87.16
2023-01-12T22:51:09.776Z,87.15
2023-01-12T22:53:37.046Z,87.18
2023-01-12T22:56:04.998Z,87.12
2023-01-12T22:58:32.071Z,87.06
2023-01-12T23:01:09.251Z,87.19
2023-01-12T23:03:37.091Z,87.19
2023-01-12T23:06:04.707Z,87.45
2023-01-12T23:08:31.962Z,87.42
2023-01-12T23:11:04.220Z,87.42
2023-01-12T23:13:31.280Z,87.29
2023-01-12T23:16:09.344Z,87.41
2023-01-12T23:18:38.460Z,87.68
2023-01-12T23:21:20.173Z,87.70
2023-01-12T23:23:51.723Z,88.14
2023-01-12T23:26:24.000Z,88.29
2023-01-12T23:28:56.060Z,88.24
2023-01-12T23:31:25.037Z,88.28
2023-01-12T23:33:52.434Z,88.32
2023-01-12T23:36:21.192Z,88.41
2023-01-12T23:38:48.203Z,88.15
2023-01-12T23:41:21.768Z,88.18
2023-01-12T23:43:49.748Z,88.03
2023-01-12T23:46:24.136Z,88.11
2023-01-12T23:48:52.045Z,87.97
2023-01-12T23:51:19.190Z,88.21
2023-01-12T23:53:46.242Z,88.43
2023-01-12T23:56:14.605Z,88.44
2023-01-12T23:58:41.983Z,88.39
